Tiempo atmosférico en la estación meteorológica de Garrucha, Puerto, Almería (12 m.)



Fecha
DESCASC
Temp. máxima en grados centígrados (hora)
DESCASC
Temp. mínima en grados centígrados (hora)
DESCASC
Temp. media en grados centígrados
DESCASC
Racha de viento máxima en m/sg (hora)
DESCASC
Velocidad máxima media en intervalos de 10 minutos(hora)
DESCASC
Precipitaciones diarias en mm
DESCASC
Precipitaciones de 00:00 a 06:00 en mm
DESCASC
Precipitaciones de 06:00 a 12:00 en mm
DESCASC
Precipitaciones de 12:00 a 18:00 en mm
DESCASC
Precipitaciones de 18:00 a 24:00 en mm
DESCASC
10-11-2019 18.5 (04:30) 13.7 (00:00) 16.1 20 (04:40) 11.94 (04:30) 0 0 0 0 0
09-11-2019 18.7 (11:50) 11.2 (00:00) 15 13.89 (14:50) 11.94 (14:50) 0 0 0 0 0
08-11-2019 18 (15:30) 13.4 (00:00) 15.7 14.72 (00:10) 9.72 (12:30) 0 0 0 0 0
07-11-2019 22.9 (16:30) 13.3 (00:00) 18.1 17.5 (23:40) 11.39 (23:40) 0.2 0 0 0.2 0
06-11-2019 21.1 (12:20) 14.8 (00:00) 18 11.39 (14:40) 10.28 (14:50) 0 0 0 0 0
05-11-2019 21.1 (14:10) 15 (00:00) 18.1 16.39 (17:30) 10.83 (16:30) 0 0 0 0 0
04-11-2019 24.7 (16:30) 17 (00:00) 20.9 8.61 (14:30) 7.78 (14:30) 0 0 0 0 0
03-11-2019 26 (12:50) 20.3 (00:00) 23.1 21.11 (15:10) 12.78 (15:10) 0 0 0 0 0
02-11-2019 26.8 (14:50) 20.7 (00:00) 23.8 12.5 (16:30) 7.5 (00:40) 0 0 0 0 0
01-11-2019 28 (16:40) 20.6 (00:00) 24.3 11.11 (14:20) 8.89 (14:10) 0 0 0 0 0
31-10-2019 25.6 (17:10) 19.3 (05:40) 22.4 11.94 (13:30) 8.33 (13:30) 0 0 0 0 0
30-10-2019 22.5 (10:30) 17.5 (00:00) 20 10.83 (16:00) 9.44 (16:00) 0 0 0 0 0
29-10-2019 21.4 (16:30) 15.1 (00:00) 18.3 7.5 (17:10) 6.67 (17:10) 0 0 0 0 0
28-10-2019 21.1 (18:00) 14.8 (00:00) 18 7.78 (17:30) 6.94 (17:30) 0 0 0 0 0
27-10-2019 21.5 (11:50) 13.6 (00:00) 17.6 6.39 (05:20) 5 (05:20) 0 0 0 0 0
26-10-2019 21.6 (12:00) 14.4 (00:00) 18 5.83 (14:20) 5 (15:10) 0 0 0 0 0
25-10-2019 21.3 (12:00) 14.1 (00:00) 17.7 8.89 (17:50) 7.78 (17:50) 0 0 0 0 0
24-10-2019 21.4 (15:20) 13.5 (00:00) 17.4 13.33 (11:20) 10 (16:50) 0 0 0 0 0
23-10-2019 20.1 (14:10) 12.5 (00:00) 16.3 8.61 (16:10) 5.83 (04:40) 1.8 0 0 1.8 0
22-10-2019 18.3 (00:40) 12.8 (00:00) 15.5 6.11 (07:00) 4.44 (18:40) 28.2 5.2 17.8 1 4.2
21-10-2019 20.4 (13:40) 13 (00:00) 16.7 5.83 (09:00) 4.72 (08:50) 0.2 0 0 0 0.2
20-10-2019 24.1 (01:10) 16.9 (00:00) 20.5 15.56 (06:00) 11.67 (06:00) 0 0 0 0 0
19-10-2019 27.3 (18:00) 15.7 (00:00) 21.5 17.78 (18:00) 13.33 (18:00) 0 0 0 0 0
18-10-2019 25 (18:20) 17.3 (00:00) 21.1 8.89 (15:00) 8.33 (15:00) 0 0 0 0 0
17-10-2019 24.4 (17:30) 14.4 (00:00) 19.4 8.89 (15:40) 6.67 (15:40) 0 0 0 0 0
16-10-2019 22.4 (11:50) 13.4 (00:00) 17.9 9.17 (17:50) 7.78 (18:10) 0 0 0 0 0
15-10-2019 22.6 (01:00) 16.9 (00:00) 19.8 12.22 (09:50) 8.06 (09:50) 0 0 0 0 0
14-10-2019 28.6 (18:10) 18.5 (00:00) 23.6 10.56 (18:40) 7.22 (18:30) 0 0 0 0 0

Gráficas

Temp. máximas Temp. mínimas Temp. medias Precipitaciones Rachas de viento máximas Velocidades máximas media en intervalos de 10 minutos

Datos horarios

Fecha y hora oficial Temperatura (ºC) Velocidad del viento (km/h) Dirección del viento Racha (km/h) Dirección de racha Precipitación (mm) Presión (hPa) Tendencia (hPa) Humedad (%)
2019-11-12 23:00:00 14.6 12 Sudoeste 21 Oeste 0 -- -- 62
2019-11-12 22:00:00 16.1 13 Oeste 33 Noroeste 0 -- -- 48
2019-11-12 21:00:00 16.9 12 Oeste 27 Noroeste 0 -- -- 45
2019-11-12 20:00:00 17.7 22 Oeste 35 Oeste 0 -- -- 45
2019-11-12 19:00:00 17.6 4 Noroeste 35 Sur 0 -- -- 45
2019-11-12 18:00:00 16.7 20 Sur 37 Sur 0 -- -- 77
2019-11-12 17:00:00 16.8 20 Sur 46 Sudeste 0 -- -- 75
2019-11-12 16:00:00 17 23 Sur 41 Sudeste 0 -- -- 76
2019-11-12 15:00:00 17.2 24 Sudeste 40 Sudeste 0 -- -- 72
2019-11-12 14:00:00 17.3 28 Sur 39 Sudeste 0 -- -- 60
2019-11-12 13:00:00 19.9 21 Oeste 32 Oeste 0 -- -- 35
2019-11-12 12:00:00 19.4 20 Noroeste 35 Noroeste 0 -- -- 34
2019-11-12 11:00:00 18 22 Noroeste 33 Noroeste 0 -- -- 41
2019-11-12 10:00:00 16.7 6 Este 10 Este 0 -- -- 57
2019-11-12 09:00:00 13.9 6 Oeste 26 Oeste 0 -- -- 58
2019-11-12 08:00:00 14.4 9 Oeste 17 Sudoeste 0 -- -- 56
2019-11-12 07:00:00 14.5 7 Sudoeste 15 Sudoeste 0 -- -- 54
2019-11-12 06:00:00 13.5 8 Oeste 21 Oeste 0 -- -- 59
2019-11-12 05:00:00 15.1 5 Noroeste 25 Noroeste 0 -- -- 55
2019-11-12 04:00:00 16.2 16 Noroeste 33 Noroeste 0 -- -- 52
2019-11-12 03:00:00 16.1 18 Noroeste 27 Noroeste 0 -- -- 56
2019-11-12 02:00:00 15.9 14 Noroeste 32 Oeste 0 -- -- 58
2019-11-12 01:00:00 15.6 13 Oeste 24 Oeste 0 -- -- 59
2019-11-12 00:00:00 15.8 19 Noroeste 32 Noroeste 0 -- -- 59
2019-11-11 23:00:00 15.7 16 Noroeste 29 Oeste 0 -- -- 59
2019-11-11 22:00:00 15.7 12 Noroeste 30 Oeste 0 -- -- 57
2019-11-11 21:00:00 15.9 10 Noroeste 23 Noroeste 0 -- -- 54
2019-11-11 20:00:00 16.7 12 Noroeste 23 Noroeste 0 -- -- 50
2019-11-11 19:00:00 17.4 15 Noroeste 28 Noroeste 0 -- -- 47
2019-11-11 18:00:00 18 15 Noroeste 28 Noroeste 0 -- -- 43
2019-11-11 17:00:00 18.7 14 Noroeste 31 Sudoeste 0 -- -- 39
2019-11-11 16:00:00 16.9 18 Sur 26 Sur 0 -- -- 46
2019-11-11 15:00:00 16.3 19 Sudeste 28 Sur 0 -- -- 51
2019-11-11 14:00:00 16.5 16 Sur 26 Noroeste 0 -- -- 47
2019-11-11 13:00:00 17.2 22 Noroeste 38 Noroeste 0 -- -- 35
2019-11-11 12:00:00 16 23 Noroeste 37 Oeste 0 -- -- 39
2019-11-11 11:00:00 15.5 16 Noroeste 34 Noroeste 0 -- -- 41
2019-11-11 10:00:00 14.9 17 Noroeste 37 Oeste 0 -- -- 41
2019-11-11 09:00:00 14.7 15 Noroeste 39 Noroeste 0 -- -- 41
2019-11-11 08:00:00 14 16 Oeste 26 Oeste 0 -- -- 45
2019-11-11 07:00:00 13.8 13 Oeste 27 Oeste 0 -- -- 47
2019-11-11 06:00:00 13.5 5 Noroeste 36 Oeste 0 -- -- 48
2019-11-11 05:00:00 13.7 18 Oeste 50 Oeste 0 -- -- 49
2019-11-11 04:00:00 13.9 39 Noroeste 62 Noroeste 0 -- -- 47
2019-11-11 03:00:00 13.9 30 Noroeste 49 Noroeste 0 -- -- 49
2019-11-11 02:00:00 14 6 Este 45 Noroeste 0 -- -- 49
2019-11-11 01:00:00 13.6 30 Oeste 48 Oeste 0 -- -- 52
2019-11-11 00:00:00 14 31 Noroeste 44 Noroeste 0 -- -- 50
2019-11-10 23:00:00 13.9 9 Noroeste 34 Oeste 0 -- -- 50
2019-11-10 22:00:00 13.9 21 Oeste 46 Oeste 0 -- -- 53
2019-11-10 21:00:00 14.2 22 Oeste 41 Oeste 0 -- -- 48
2019-11-10 20:00:00 14.8 25 Noroeste 52 Noroeste 0 -- -- 46
2019-11-10 19:00:00 15.4 15 Oeste 43 Oeste 0 -- -- 40
2019-11-10 18:00:00 15.7 16 Oeste 41 Noroeste 0 -- -- 38
2019-11-10 17:00:00 16.2 21 Noroeste 57 Oeste 0 -- -- 40
2019-11-10 16:00:00 16.7 26 Noroeste 46 Noroeste 0 -- -- 38
2019-11-10 15:00:00 17.2 33 Noroeste 63 Noroeste 0 -- -- 32
2019-11-10 14:00:00 17.9 37 Noroeste 63 Noroeste 0 -- -- 27
2019-11-10 13:00:00 17.9 37 Noroeste 60 Noroeste 0 -- -- 29
2019-11-10 12:00:00 18.2 32 Noroeste 50 Noroeste 0 -- -- 30
2019-11-10 11:00:00 17 19 Oeste 33 Noroeste 0 -- -- 41
2019-11-10 10:00:00 15.5 18 Norte 32 Norte 0 -- -- 50
2019-11-10 09:00:00 17.2 19 Noroeste 31 Noroeste 0 -- -- 49
2019-11-10 08:00:00 17.2 15 Noroeste 30 Oeste 0 -- -- 48
2019-11-10 07:00:00 17.5 19 Oeste 45 Noroeste 0 -- -- 48
2019-11-10 06:00:00 17.6 20 Noroeste 50 Oeste 0 -- -- 50
2019-11-10 05:00:00 18 32 Noroeste 72 Noroeste 0 -- -- 49
2019-11-10 04:00:00 17.4 5 Sudoeste 28 Oeste 0 -- -- 54
2019-11-10 03:00:00 16.2 9 Sur 17 Sudoeste 0 -- -- 60
2019-11-10 02:00:00 16.9 4 Este 19 Oeste 0 -- -- 57
2019-11-10 01:00:00 17 8 Noroeste 16 Noroeste 0 -- -- 45
2019-11-10 00:00:00 17 3 Noroeste 20 Sudoeste 0 -- -- 47
2019-11-09 23:00:00 16.5 11 Sudoeste 37 Noroeste 0 -- -- 44
2019-11-09 22:00:00 17 11 Sudoeste 22 Oeste 0 -- -- 46
2019-11-09 21:00:00 16.8 19 Sudoeste 32 Sudoeste 0 -- -- 41
2019-11-09 20:00:00 16.9 26 Oeste 33 Oeste 0 -- -- 42
2019-11-09 19:00:00 17.1 24 Sudoeste 33 Sudoeste 0 -- -- 47
2019-11-09 18:00:00 18.1 8 Oeste 42 Sur 0 -- -- 41
2019-11-09 17:00:00 17.3 36 Sur 41 Sur 0 -- -- 67
2019-11-09 16:00:00 17.3 35 Sur 44 Sudeste 0 -- -- 60
2019-11-09 15:00:00 16.6 41 Sur 50 Sur 0 -- -- 67
2019-11-09 14:00:00 16.7 40 Sur 45 Sur 0 -- -- 67
2019-11-09 13:00:00 17 36 Sur 42 Sur 0 -- -- 62
2019-11-09 12:00:00 18.1 8 Sudeste 15 Oeste 0 -- -- 37
2019-11-09 11:00:00 16.7 13 Oeste 19 Oeste 0 -- -- 33
2019-11-09 10:00:00 14.7 13 Sudoeste 17 Sudoeste 0 -- -- 42
2019-11-09 09:00:00 12.5 11 Oeste 19 Oeste 0 -- -- 44
2019-11-09 08:00:00 12.3 12 Oeste 21 Oeste 0 -- -- 47
2019-11-09 07:00:00 11.8 14 Oeste 22 Oeste 0 -- -- 48
2019-11-09 06:00:00 12.4 10 Oeste 18 Oeste 0 -- -- 45
2019-11-09 05:00:00 11.2 12 Oeste 18 Oeste 0 -- -- 49
2019-11-09 04:00:00 12.4 14 Oeste 25 Sudoeste 0 -- -- 45
2019-11-09 03:00:00 14.3 20 Oeste 31 Sudoeste 0 -- -- 41
2019-11-09 02:00:00 13.3 13 Oeste 24 Oeste 0 -- -- 41
2019-11-09 01:00:00 13.6 13 Oeste 27 Noroeste 0 -- -- 41
2019-11-09 00:00:00 13.8 13 Oeste 18 Oeste 0 -- -- 39
2019-11-08 23:00:00 14.5 10 Oeste 27 Noroeste 0 -- -- 37
2019-11-08 22:00:00 15.2 19 Noroeste 28 Noroeste 0 -- -- 41
2019-11-08 21:00:00 15.5 11 Noroeste 28 Noroeste 0 -- -- 41
2019-11-08 20:00:00 15.9 17 Noroeste 36 Noroeste 0 -- -- 40
2019-11-08 19:00:00 16.2 22 Noroeste 41 Noroeste 0 -- -- 37
2019-11-08 18:00:00 17.1 24 Noroeste 40 Oeste 0 -- -- 34
2019-11-08 17:00:00 18 22 Noroeste 48 Oeste 0 -- -- 31
2019-11-08 16:00:00 17.9 30 Noroeste 49 Oeste 0 -- -- 30
2019-11-08 15:00:00 17.6 31 Noroeste 45 Noroeste 0 -- -- 33
2019-11-08 14:00:00 17.4 30 Noroeste 49 Oeste 0 -- -- 33
2019-11-08 13:00:00 17.2 32 Oeste 49 Oeste 0 -- -- 34
2019-11-08 12:00:00 16.9 26 Noroeste 51 Oeste 0 -- -- 38
2019-11-08 11:00:00 16.2 32 Oeste 53 Oeste 0 -- -- 43
2019-11-08 10:00:00 15.8 25 Noroeste 42 Oeste 0 -- -- 45
2019-11-08 09:00:00 15.1 27 Oeste 46 Oeste 0 -- -- 46
2019-11-08 08:00:00 14.9 23 Oeste 45 Oeste 0 -- -- 46
2019-11-08 07:00:00 15.2 28 Noroeste 48 Noroeste 0 -- -- 46
2019-11-08 06:00:00 15.3 20 Noroeste 40 Noroeste 0 -- -- 44
2019-11-08 05:00:00 15.8 23 Noroeste 31 Noroeste 0 -- -- 42
2019-11-08 04:00:00 15.3 14 Sudoeste 20 Noroeste 0 -- -- 47
2019-11-08 03:00:00 16.3 10 Sudoeste 35 Oeste 0 -- -- 40
2019-11-08 02:00:00 17 30 Noroeste 46 Noroeste 0 -- -- 37
2019-11-08 01:00:00 17 28 Noroeste 53 Noroeste 0 -- -- 42
2019-11-08 00:00:00 17.2 28 Oeste 63 Noroeste 0 -- -- 44
2019-11-07 23:00:00 17.4 17 Oeste 42 Oeste 0 -- -- 46
2019-11-07 22:00:00 18 20 Noroeste 42 Noroeste 0 -- -- 42
2019-11-07 21:00:00 18.4 23 Noroeste 40 Noroeste 0 -- -- 45
2019-11-07 20:00:00 19 17 Oeste 38 Noroeste 0 -- -- 49
2019-11-07 19:00:00 20 23 Oeste 40 Oeste 0 -- -- 49
2019-11-07 18:00:00 20.1 12 Oeste 23 Sur 0 -- -- 59
2019-11-07 17:00:00 21.8 11 Sur 39 Oeste 0 -- -- 62
2019-11-07 16:00:00 21.8 8 Sur 18 Sudeste 0 -- -- 57
2019-11-07 15:00:00 20.9 13 Sudoeste 30 Sudeste 0.2 -- -- 54
2019-11-07 14:00:00 19.6 27 Sudeste 33 Sudeste 0 -- -- 68
2019-11-07 13:00:00 19.3 30 Sudeste 38 Sudeste 0 -- -- 64
2019-11-07 12:00:00 19.7 22 Sudeste 38 Sudeste 0 -- -- 60
2019-11-07 11:00:00 19.2 12 Sudeste 19 Sudoeste 0 -- -- 53
2019-11-07 10:00:00 18.1 13 Sudoeste 26 Sudoeste 0 -- -- 49
2019-11-07 09:00:00 15.2 23 Sudoeste 27 Sudoeste 0 -- -- 54
2019-11-07 08:00:00 13.9 18 Sudoeste 22 Sudoeste 0 -- -- 57
2019-11-07 07:00:00 14.3 14 Oeste 24 Sudoeste 0 -- -- 55
2019-11-07 06:00:00 14.3 18 Sudoeste 25 Sudoeste 0 -- -- 57
2019-11-07 05:00:00 14.1 12 Oeste 21 Sudoeste 0 -- -- 55
2019-11-07 04:00:00 14.3 15 Sudoeste 23 Sudoeste 0 -- -- 56
2019-11-07 03:00:00 14.4 14 Sudoeste 18 Sudoeste 0 -- -- 53
2019-11-07 02:00:00 15.3 9 Sudoeste 17 Sudoeste 0 -- -- 54
2019-11-07 01:00:00 15.5 11 Oeste 22 Oeste 0 -- -- 54
2019-11-07 00:00:00 16.1 11 Oeste 26 Oeste 0 -- -- 49
2019-11-06 23:00:00 16.8 13 Oeste 26 Oeste 0 -- -- 49
2019-11-06 22:00:00 16.2 14 Oeste 24 Oeste 0 -- -- 55
2019-11-06 21:00:00 16.3 13 Oeste 21 Oeste 0 -- -- 55
2019-11-06 20:00:00 17.4 9 Oeste 14 Oeste 0 -- -- 53
2019-11-06 19:00:00 18.3 9 Sudoeste 32 Sur 0 -- -- 51
2019-11-06 18:00:00 18.8 30 Sur 39 Sur 0 -- -- 60
2019-11-06 17:00:00 18.8 35 Sur 41 Sur 0 -- -- 59
2019-11-06 16:00:00 18.7 36 Sudeste 41 Sur 0 -- -- 64
2019-11-06 15:00:00 18.7 37 Sur 41 Sur 0 -- -- 63
2019-11-06 14:00:00 18.5 35 Sur 39 Sur 0 -- -- 66
2019-11-06 13:00:00 20.5 12 Sur 18 Sur 0 -- -- 39
2019-11-06 12:00:00 20.1 9 Este 18 Sudeste 0 -- -- 38
2019-11-06 11:00:00 19.7 9 Sudoeste 17 Noroeste 0 -- -- 40
2019-11-06 10:00:00 19.2 4 Noroeste 15 Noroeste 0 -- -- 46
2019-11-06 09:00:00 16.7 7 Noroeste 15 Noroeste 0 -- -- 55
2019-11-06 08:00:00 15.1 8 Noroeste 12 Noroeste 0 -- -- 61
2019-11-06 07:00:00 16 11 Oeste 38 Oeste 0 -- -- 56
2019-11-06 06:00:00 16.7 18 Oeste 30 Oeste 0 -- -- 53
2019-11-06 05:00:00 16.9 13 Oeste 24 Oeste 0 -- -- 51
2019-11-06 04:00:00 16.6 11 Oeste 22 Oeste 0 -- -- 51
2019-11-06 03:00:00 16.5 16 Oeste 24 Oeste 0 -- -- 51
2019-11-06 02:00:00 16.6 12 Oeste 25 Oeste 0 -- -- 51
2019-11-06 01:00:00 17.2 19 Sudoeste 25 Sudoeste 0 -- -- 52
2019-11-06 00:00:00 16.8 13 Oeste 19 Oeste 0 -- -- 50
2019-11-05 23:00:00 17.2 14 Oeste 20 Oeste 0 -- -- 48
2019-11-05 22:00:00 17.5 10 Sudoeste 18 Sudoeste 0 -- -- 49
2019-11-05 21:00:00 18.3 14 Oeste 27 Oeste 0 -- -- 44
2019-11-05 20:00:00 18.2 13 Oeste 24 Oeste 0 -- -- 45
2019-11-05 19:00:00 18.9 15 Oeste 44 Noroeste 0 -- -- 44
2019-11-05 18:00:00 19.4 23 Oeste 59 Noroeste 0 -- -- 42
2019-11-05 17:00:00 20 26 Noroeste 57 Noroeste 0 -- -- 41
2019-11-05 16:00:00 20.8 31 Noroeste 55 Noroeste 0 -- -- 39
2019-11-05 15:00:00 21 21 Noroeste 57 Noroeste 0 -- -- 37
2019-11-05 14:00:00 21 27 Noroeste 48 Noroeste 0 -- -- 35
2019-11-05 13:00:00 20.7 28 Noroeste 53 Noroeste 0 -- -- 37
2019-11-05 12:00:00 19.8 37 Noroeste 54 Noroeste 0 -- -- 40
2019-11-05 11:00:00 19.3 35 Noroeste 51 Noroeste 0 -- -- 43
2019-11-05 10:00:00 18.8 32 Noroeste 54 Noroeste 0 -- -- 46
2019-11-05 09:00:00 18.5 22 Noroeste 44 Noroeste 0 -- -- 50
2019-11-05 08:00:00 18.7 27 Noroeste 51 Noroeste 0 -- -- 53
2019-11-05 07:00:00 18.9 19 Oeste 51 Noroeste 0 -- -- 53
2019-11-05 06:00:00 18.7 28 Noroeste 45 Noroeste 0 -- -- 62
2019-11-05 05:00:00 17.3 8 Oeste 32 Sur 0 -- -- 64
2019-11-05 04:00:00 17.8 17 Sur 24 Sur 0 -- -- 70
2019-11-05 03:00:00 17.1 6 Sur 13 Noroeste 0 -- -- 69
2019-11-05 02:00:00 16.9 12 Sudoeste 17 Sudoeste 0 -- -- 68
2019-11-05 01:00:00 16.9 12 Sudoeste 18 Sudoeste 0 -- -- 71
2019-11-05 00:00:00 18.8 5 Sur 14 Sudeste 0 -- -- 75
2019-11-04 23:00:00 18.6 10 Sur 14 Sur 0 -- -- 67
2019-11-04 22:00:00 19.6 7 Oeste 18 Sudoeste 0 -- -- 59
2019-11-04 21:00:00 21.2 8 Oeste 16 Oeste 0 -- -- 51
2019-11-04 20:00:00 20.8 14 Sudoeste 25 Oeste 0 -- -- 62
2019-11-04 19:00:00 21.3 14 Oeste 24 Oeste 0 -- -- 65
2019-11-04 18:00:00 22.4 19 Sudoeste 27 Sudoeste 0 -- -- 61
2019-11-04 17:00:00 24.2 17 Sudoeste 26 Oeste 0 -- -- 52
2019-11-04 16:00:00 22.9 20 Sur 31 Sur 0 -- -- 64
2019-11-04 15:00:00 21.8 23 Sur 31 Sur 0 -- -- 72
2019-11-04 14:00:00 21.2 26 Sur 30 Sur 0 -- -- 76
2019-11-04 13:00:00 21.8 21 Sur 24 Sur 0 -- -- 72
2019-11-04 12:00:00 21.7 6 Sur 18 Sudeste 0 -- -- 71
2019-11-04 11:00:00 20.5 19 Sudeste 22 Sudeste 0 -- -- 75
2019-11-04 10:00:00 22.6 6 Sudoeste 19 Sudoeste 0 -- -- 54
2019-11-04 09:00:00 20.2 11 Oeste 21 Noroeste 0 -- -- 59
2019-11-04 08:00:00 18.4 16 Oeste 23 Sudoeste 0 -- -- 65
2019-11-04 07:00:00 18.4 14 Oeste 19 Oeste 0 -- -- 64
2019-11-04 06:00:00 18.4 10 Sudoeste 16 Sudoeste 0 -- -- 64
2019-11-04 05:00:00 19.7 9 Sur 15 Sur 0 -- -- 68
2019-11-04 04:00:00 18.5 6 Sudoeste 13 Sudoeste 0 -- -- 56
2019-11-04 03:00:00 18.8 8 Oeste 19 Sudoeste 0 -- -- 57
2019-11-04 02:00:00 19.9 11 Oeste 23 Sur 0 -- -- 53
2019-11-04 01:00:00 20.3 17 Oeste 29 Oeste 0 -- -- 50
2019-11-04 00:00:00 20.3 19 Oeste 36 Noroeste 0 -- -- 53
2019-11-03 23:00:00 22.2 14 Oeste 24 Sur 0 -- -- 47
2019-11-03 22:00:00 21.5 12 Sur 31 Oeste 0 -- -- 49
2019-11-03 21:00:00 21.7 11 Sur 21 Oeste 0 -- -- 50
2019-11-03 20:00:00 23 9 Sudoeste 35 Oeste 0 -- -- 45
2019-11-03 19:00:00 24 23 Oeste 58 Oeste 0 -- -- 42
2019-11-03 18:00:00 24.6 31 Oeste 55 Noroeste 0 -- -- 41
2019-11-03 17:00:00 25 19 Noroeste 51 Oeste 0 -- -- 42
2019-11-03 16:00:00 25.2 30 Oeste 76 Oeste 0 -- -- 41
2019-11-03 15:00:00 25.4 40 Oeste 63 Oeste 0 -- -- 40
2019-11-03 14:00:00 25.1 30 Oeste 62 Oeste 0 -- -- 42
2019-11-03 13:00:00 25.9 27 Noroeste 57 Noroeste 0 -- -- 42
2019-11-03 12:00:00 25.3 28 Noroeste 44 Noroeste 0 -- -- 44
2019-11-03 11:00:00 23.9 13 Este 24 Sudeste 0 -- -- 56
2019-11-03 10:00:00 24 4 Noroeste 31 Noroeste 0 -- -- 46
2019-11-03 09:00:00 23 14 Oeste 30 Sudoeste 0 -- -- 48
2019-11-03 08:00:00 22 10 Noroeste 26 Oeste 0 -- -- 50
2019-11-03 07:00:00 22 5 Noroeste 31 Oeste 0 -- -- 50
2019-11-03 06:00:00 22.2 3 Oeste 31 Noroeste 0 -- -- 54
2019-11-03 05:00:00 22.2 9 Oeste 30 Oeste 0 -- -- 52
2019-11-03 04:00:00 22.5 14 Noroeste 32 Sudoeste 0 -- -- 52
2019-11-03 03:00:00 23.8 17 Sudoeste 32 Sudoeste 0 -- -- 44
2019-11-03 02:00:00 23.4 20 Sudoeste 33 Sudoeste 0 -- -- 47
2019-11-03 01:00:00 23 21 Sudoeste 32 Sudoeste 0 -- -- 49
2019-11-03 00:00:00 23.3 21 Sudoeste 30 Sudoeste 0 -- -- 47
2019-11-02 23:00:00 23.5 19 Sudoeste 27 Sudoeste 0 -- -- 47
2019-11-02 22:00:00 22.8 10 Oeste 17 Oeste 0 -- -- 47
2019-11-02 21:00:00 23.3 11 Oeste 18 Sudoeste 0 -- -- 51
2019-11-02 20:00:00 22.8 8 Sudoeste 15 Sudeste 0 -- -- 60
2019-11-02 19:00:00 22.5 8 Sudeste 14 Sudeste 0 -- -- 75
2019-11-02 18:00:00 25.7 10 Sudoeste 28 Oeste 0 -- -- 43
2019-11-02 17:00:00 26.2 22 Noroeste 45 Oeste 0 -- -- 42
2019-11-02 16:00:00 26.1 21 Noroeste 38 Noroeste 0 -- -- 45
2019-11-02 15:00:00 26.8 24 Noroeste 38 Noroeste 0 -- -- 41
2019-11-02 14:00:00 23.9 9 Sur 32 Sudeste 0 -- -- 72
2019-11-02 13:00:00 23.5 12 Sudeste 18 Este 0 -- -- 77
2019-11-02 12:00:00 23.6 6 Nordeste 14 Nordeste 0 -- -- 76
2019-11-02 11:00:00 22.6 12 Nordeste 17 Nordeste 0 -- -- 80
2019-11-02 10:00:00 22.9 8 Sur 13 Sudeste 0 -- -- 74
2019-11-02 09:00:00 22.5 3 Noroeste 8 Este 0 -- -- 66
2019-11-02 08:00:00 21.4 0 Calma 14 Sudeste 0 -- -- 62
2019-11-02 07:00:00 21.7 3 Noroeste 18 Sur 0 -- -- 61
2019-11-02 06:00:00 21.2 7 Sur 14 Sudoeste 0 -- -- 64
2019-11-02 05:00:00 22.1 10 Sudoeste 15 Sudoeste 0 -- -- 60
2019-11-02 04:00:00 22.8 9 Sudoeste 24 Oeste 0 -- -- 59
2019-11-02 03:00:00 24.9 14 Noroeste 30 Oeste 0 -- -- 50
2019-11-02 02:00:00 25.1 20 Noroeste 36 Oeste 0 -- -- 52
2019-11-02 01:00:00 25.8 23 Oeste 44 Oeste 0 -- -- 50
2019-11-02 00:00:00 25.8 24 Oeste 38 Oeste 0 -- -- 50
2019-11-01 23:00:00 26.1 19 Oeste 39 Oeste 0 -- -- 50
2019-11-01 22:00:00 25.7 16 Noroeste 24 Oeste 0 -- -- 53
2019-11-01 21:00:00 24.9 8 Oeste 23 Noroeste 0 -- -- 56
2019-11-01 20:00:00 25.6 12 Noroeste 21 Noroeste 0 -- -- 55
2019-11-01 19:00:00 26.3 17 Oeste 39 Oeste 0 -- -- 51
2019-11-01 18:00:00 27 24 Oeste 37 Oeste 0 -- -- 49
2019-11-01 17:00:00 27.9 24 Oeste 36 Oeste 0 -- -- 46
2019-11-01 16:00:00 24.2 14 Sur 35 Sur 0 -- -- 72
2019-11-01 15:00:00 22.7 28 Sudeste 40 Sur 0 -- -- 78
2019-11-01 14:00:00 22.4 28 Sur 33 Sur 0 -- -- 88
2019-11-01 13:00:00 23.8 17 Sur 31 Sudeste 0 -- -- 76
2019-11-01 12:00:00 27.1 14 Oeste 25 Oeste 0 -- -- 52
2019-11-01 11:00:00 23.9 17 Sur 25 Sur 0 -- -- 63
2019-11-01 10:00:00 25.6 15 Noroeste 26 Oeste 0 -- -- 57
2019-11-01 09:00:00 22.5 12 Sudoeste 18 Sudoeste 0 -- -- 63
2019-11-01 08:00:00 21.2 13 Sudoeste 18 Sudoeste 0 -- -- 68
2019-11-01 07:00:00 21.1 0 Calma 11 Sur 0 -- -- 70
2019-11-01 06:00:00 21.9 3 Norte 6 Norte 0 -- -- 73
2019-11-01 05:00:00 22 3 Sur 15 Sur 0 -- -- 63
2019-11-01 04:00:00 24.4 10 Oeste 23 Noroeste 0 -- -- 53
2019-11-01 03:00:00 23.6 15 Oeste 29 Oeste 0 -- -- 57
2019-11-01 02:00:00 22.5 13 Sudoeste 32 Oeste 0 -- -- 60
2019-11-01 01:00:00 24.7 23 Noroeste 34 Noroeste 0 -- -- 54
2019-11-01 00:00:00 23.7 7 Noroeste 23 Noroeste 0 -- -- 57
2019-10-31 23:00:00 24.2 13 Oeste 22 Oeste 0 -- -- 55
2019-10-31 22:00:00 23.2 9 Sudoeste 17 Norte 0 -- -- 60
2019-10-31 21:00:00 24.4 8 Noroeste 17 Oeste 0 -- -- 55
2019-10-31 20:00:00 24.1 3 Noroeste 18 Oeste 0 -- -- 55
2019-10-31 19:00:00 22 4 Norte 15 Norte 0 -- -- 88
2019-10-31 18:00:00 23.6 4 Norte 11 Norte 0 -- -- 78
2019-10-31 17:00:00 24.5 11 Sudeste 24 Sudeste 0 -- -- 66
2019-10-31 16:00:00 23.9 13 Sur 40 Sur 0 -- -- 74
2019-10-31 15:00:00 21.8 25 Sur 36 Sur 0 -- -- 86
2019-10-31 14:00:00 22.6 28 Sur 43 Sur 0 -- -- 81
2019-10-31 13:00:00 22.6 14 Sur 25 Sudeste 0 -- -- 80
2019-10-31 12:00:00 22.3 12 Sur 17 Sudeste 0 -- -- 80
2019-10-31 11:00:00 22 13 Sudeste 21 Sur 0 -- -- 78
2019-10-31 10:00:00 24.3 6 Sudoeste 13 Sudoeste 0 -- -- 55
2019-10-31 09:00:00 21.7 9 Oeste 20 Sudoeste 0 -- -- 60
2019-10-31 08:00:00 19.7 5 Sudoeste 18 Sudoeste 0 -- -- 65
2019-10-31 07:00:00 20.9 13 Sudoeste 25 Sudoeste 0 -- -- 61
2019-10-31 06:00:00 20.2 15 Oeste 21 Oeste 0 -- -- 63
2019-10-31 05:00:00 19.7 8 Noroeste 21 Oeste 0 -- -- 67
2019-10-31 04:00:00 20 10 Oeste 18 Oeste 0 -- -- 65
2019-10-31 03:00:00 20.3 13 Oeste 16 Oeste 0 -- -- 64
2019-10-31 02:00:00 19.6 0 Calma 9 Sudoeste 0 -- -- 73
2019-10-31 01:00:00 19.7 5 Sudoeste 11 Oeste 0 -- -- 71
2019-10-31 00:00:00 20 8 Oeste 17 Oeste 0 -- -- 69
2019-10-30 23:00:00 20.1 13 Noroeste 18 Oeste 0 -- -- 70
2019-10-30 22:00:00 21.5 10 Oeste 18 Oeste 0 -- -- 65
2019-10-30 21:00:00 20.9 14 Oeste 21 Sudoeste 0 -- -- 68
2019-10-30 20:00:00 21.6 5 Noroeste 13 Oeste 0 -- -- 64
2019-10-30 19:00:00 21.7 4 Sudoeste 22 Sur 0 -- -- 72
2019-10-30 18:00:00 21.8 19 Sur 34 Sur 0 -- -- 83
2019-10-30 17:00:00 22 32 Sur 39 Sur 0 -- -- 78
2019-10-30 16:00:00 22.1 34 Sur 39 Sur 0 -- -- 77
2019-10-30 15:00:00 22 28 Sur 31 Sudeste 0 -- -- 80
2019-10-30 14:00:00 21.5 21 Sudeste 26 Sudeste 0 -- -- 87
2019-10-30 13:00:00 21.1 18 Sur 21 Sur 0 -- -- 83
2019-10-30 12:00:00 21.5 10 Sudeste 13 Sudeste 0 -- -- 79
2019-10-30 11:00:00 21.7 7 Sudeste 9 Sudeste 0 -- -- 68
2019-10-30 10:00:00 21.6 4 Oeste 11 Oeste 0 -- -- 67
2019-10-30 09:00:00 18.8 11 Noroeste 18 Oeste 0 -- -- 71
2019-10-30 08:00:00 17.8 12 Oeste 18 Noroeste 0 -- -- 72
2019-10-30 07:00:00 18.6 14 Oeste 16 Oeste 0 -- -- 68
2019-10-30 06:00:00 19.6 11 Oeste 18 Oeste 0 -- -- 65
2019-10-30 05:00:00 19.4 13 Oeste 15 Oeste 0 -- -- 65
2019-10-30 04:00:00 19 12 Oeste 19 Oeste 0 -- -- 67
2019-10-30 03:00:00 18.1 5 Sudoeste 13 Oeste 0 -- -- 74
2019-10-30 02:00:00 18.7 11 Oeste 15 Oeste 0 -- -- 72
2019-10-30 01:00:00 19.1 9 Oeste 12 Oeste 0 -- -- 71
2019-10-30 00:00:00 19.3 10 Oeste 15 Oeste 0 -- -- 70
2019-10-29 23:00:00 18.1 10 Noroeste 19 Oeste 0 -- -- 76
2019-10-29 22:00:00 19.1 3 Oeste 12 Oeste 0 -- -- 79
2019-10-29 21:00:00 19.2 10 Oeste 15 Oeste 0 -- -- 78
2019-10-29 20:00:00 19.5 8 Noroeste 18 Noroeste 0 -- -- 92
2019-10-29 19:00:00 19.9 14 Oeste 22 Sur 0 -- -- 91
2019-10-29 18:00:00 20.8 20 Sur 27 Sudeste 0 -- -- 91
2019-10-29 17:00:00 21.1 23 Sudeste 27 Sur 0 -- -- 88
2019-10-29 16:00:00 21.2 18 Sudeste 22 Sudeste 0 -- -- 88
2019-10-29 15:00:00 21 19 Sur 22 Sur 0 -- -- 88
2019-10-29 14:00:00 20.8 19 Sur 21 Sur 0 -- -- 87
2019-10-29 13:00:00 20.3 16 Sudeste 19 Sur 0 -- -- 85
2019-10-29 12:00:00 20.2 11 Sudeste 14 Sudeste 0 -- -- 82
2019-10-29 11:00:00 19.7 9 Sur 10 Sur 0 -- -- 74
2019-10-29 10:00:00 19.5 3 Sudoeste 13 Oeste 0 -- -- 78
2019-10-29 09:00:00 16.5 10 Oeste 18 Oeste 0 -- -- 83
2019-10-29 08:00:00 15.1 6 Oeste 13 Sudoeste 0 -- -- 88
2019-10-29 07:00:00 15.8 9 Oeste 14 Sudoeste 0 -- -- 89
2019-10-29 06:00:00 15.6 10 Sudoeste 17 Sudoeste 0 -- -- 90
2019-10-29 05:00:00 15.8 3 Oeste 12 Sudoeste 0 -- -- 88
2019-10-29 04:00:00 16 3 Oeste 10 Oeste 0 -- -- 90
2019-10-29 03:00:00 16.5 5 Oeste 11 Sudoeste 0 -- -- 90
2019-10-29 02:00:00 16.3 6 Sudoeste 13 Oeste 0 -- -- 92
2019-10-29 01:00:00 16.7 4 Oeste 16 Sudoeste 0 -- -- 88
2019-10-29 00:00:00 17.3 10 Oeste 21 Sudoeste 0 -- -- 86
2019-10-28 23:00:00 17.9 10 Oeste 16 Oeste 0 -- -- 85
2019-10-28 22:00:00 18.3 10 Oeste 15 Oeste 0 -- -- 85
2019-10-28 21:00:00 18.5 12 Oeste 15 Oeste 0 -- -- 87
2019-10-28 20:00:00 18.5 11 Oeste 14 Oeste 0 -- -- 88
2019-10-28 19:00:00 19.4 10 Noroeste 12 Noroeste 0 -- -- 84
2019-10-28 18:00:00 21.1 13 Sudeste 28 Sudeste 0 -- -- 79
2019-10-28 17:00:00 20.7 19 Sudeste 26 Sudeste 0 -- -- 83
2019-10-28 16:00:00 20.6 19 Sudeste 25 Sudeste 0 -- -- 83
2019-10-28 15:00:00 20.1 22 Sudeste 27 Sur 0 -- -- 87
2019-10-28 14:00:00 19.9 22 Sudeste 26 Sudeste 0 -- -- 88
2019-10-28 13:00:00 19.7 15 Sudeste 19 Sudeste 0 -- -- 87
2019-10-28 12:00:00 19.7 5 Este 10 Este 0 -- -- 81
2019-10-28 11:00:00 19.3 3 Noroeste 8 Noroeste 0 -- -- 81
2019-10-28 10:00:00 17.8 5 Noroeste 9 Noroeste 0 -- -- 84
2019-10-28 09:00:00 16.1 4 Noroeste 14 Oeste 0 -- -- 88
2019-10-28 08:00:00 15.6 6 Noroeste 19 Oeste 0 -- -- 90
2019-10-28 07:00:00 15 12 Noroeste 20 Oeste 0 -- -- 91
2019-10-28 06:00:00 15.2 9 Oeste 19 Oeste 0 -- -- 89
2019-10-28 05:00:00 15.6 6 Oeste 13 Oeste 0 -- -- 91
2019-10-28 04:00:00 15.9 6 Oeste 11 Oeste 0 -- -- 91
2019-10-28 03:00:00 16.2 6 Oeste 16 Oeste 0 -- -- 91
2019-10-28 02:00:00 16.2 12 Oeste 20 Oeste 0 -- -- 90
2019-10-28 01:00:00 16.6 3 Noroeste 19 Oeste 0 -- -- 91
2019-10-28 00:00:00 16.8 6 Oeste 15 Oeste 0 -- -- 91
2019-10-27 23:00:00 17.4 9 Oeste 17 Oeste 0 -- -- 90
2019-10-27 22:00:00 17.6 8 Oeste 14 Oeste 0 -- -- 91
2019-10-27 21:00:00 18.5 8 Oeste 12 Oeste 0 -- -- 89
2019-10-27 20:00:00 19 6 Sudoeste 12 Sudoeste 0 -- -- 87
2019-10-27 19:00:00 19.8 6 Sudeste 12 Sudeste 0 -- -- 84
2019-10-27 18:00:00 20.1 9 Sudeste 17 Sudeste 0 -- -- 83
2019-10-27 17:00:00 20.4 16 Sudeste 21 Este 0 -- -- 82
2019-10-27 16:00:00 20.7 14 Sudeste 19 Este 0 -- -- 81
2019-10-27 15:00:00 20.7 14 Este 18 Este 0 -- -- 80
2019-10-27 14:00:00 21 11 Este 15 Este 0 -- -- 78
2019-10-27 13:00:00 20.7 11 Este 14 Este 0 -- -- 76
2019-10-27 12:00:00 20.8 8 Este 9 Este 0 -- -- 72
2019-10-27 11:00:00 20.3 3 Norte 13 Oeste 0 -- -- 66
2019-10-27 10:00:00 17.6 11 Noroeste 17 Noroeste 0 -- -- 73
2019-10-27 09:00:00 14.8 12 Noroeste 19 Oeste 0 -- -- 83
2019-10-27 08:00:00 14.1 16 Oeste 21 Oeste 0 -- -- 84
2019-10-27 07:00:00 14.2 13 Noroeste 17 Noroeste 0 -- -- 85
2019-10-27 06:00:00 13.8 14 Noroeste 23 Oeste 0 -- -- 87
2019-10-27 05:00:00 14.7 16 Oeste 21 Oeste 0 -- -- 83
2019-10-27 04:00:00 14.9 15 Noroeste 18 Oeste 0 -- -- 84
2019-10-27 03:00:00 15.4 10 Oeste 16 Oeste 0 -- -- 83
2019-10-27 02:00:00 15.4 12 Noroeste 16 Noroeste 0 -- -- 85
2019-10-27 01:00:00 16.9 12 Oeste 19 Oeste 0 -- -- 81
2019-10-27 00:00:00 17 13 Oeste 17 Oeste 0 -- -- 83
2019-10-26 23:00:00 17.2 11 Oeste 14 Oeste 0 -- -- 85
2019-10-26 22:00:00 17.1 8 Oeste 12 Sudoeste 0 -- -- 87
2019-10-26 21:00:00 19 10 Sudoeste 12 Sudoeste 0 -- -- 80
2019-10-26 20:00:00 19.8 10 Sudeste 19 Sudeste 0 -- -- 78
2019-10-26 19:00:00 20.4 16 Sudeste 20 Este 0 -- -- 76
2019-10-26 18:00:00 20.9 15 Sudeste 19 Sudeste 0 -- -- 73
2019-10-26 17:00:00 20.7 17 Sudeste 20 Sudeste 0 -- -- 71
2019-10-26 16:00:00 20.6 18 Sudeste 21 Sudeste 0 -- -- 76
2019-10-26 15:00:00 20.4 18 Sudeste 21 Sudeste 0 -- -- 74
2019-10-26 14:00:00 20.3 14 Sudeste 17 Sudeste 0 -- -- 70
2019-10-26 13:00:00 20.2 8 Sudeste 10 Sudeste 0 -- -- 67
2019-10-26 12:00:00 21.6 3 Nordeste 7 Noroeste 0 -- -- 63
2019-10-26 11:00:00 18.5 3 Noroeste 15 Oeste 0 -- -- 64
2019-10-26 10:00:00 15.8 13 Oeste 17 Oeste 0 -- -- 76
2019-10-26 09:00:00 14.8 6 Noroeste 21 Oeste 0 -- -- 76
2019-10-26 08:00:00 14.6 6 Oeste 15 Oeste 0 -- -- 78
2019-10-26 07:00:00 14.7 6 Oeste 13 Oeste 0 -- -- 77
2019-10-26 06:00:00 14.6 4 Oeste 13 Oeste 0 -- -- 79
2019-10-26 05:00:00 15.5 7 Oeste 19 Oeste 0 -- -- 76
2019-10-26 04:00:00 14.9 8 Oeste 18 Oeste 0 -- -- 80
2019-10-26 03:00:00 15.3 13 Oeste 20 Oeste 0 -- -- 79
2019-10-26 02:00:00 15.4 9 Oeste 14 Oeste 0 -- -- 78
2019-10-26 01:00:00 15.8 9 Noroeste 18 Oeste 0 -- -- 76
2019-10-26 00:00:00 16.1 10 Noroeste 21 Oeste 0 -- -- 75
2019-10-25 23:00:00 16.2 13 Noroeste 16 Noroeste 0 -- -- 78
2019-10-25 22:00:00 17.4 11 Oeste 19 Oeste 0 -- -- 78
2019-10-25 21:00:00 18.1 13 Sudoeste 21 Sur 0 -- -- 78
2019-10-25 20:00:00 19.7 20 Sur 30 Sudeste 0 -- -- 76
2019-10-25 19:00:00 19.9 26 Sudeste 31 Sudeste 0 -- -- 73
2019-10-25 18:00:00 20.4 28 Sudeste 32 Sudeste 0 -- -- 71
2019-10-25 17:00:00 20.8 26 Sur 31 Sudeste 0 -- -- 64
2019-10-25 16:00:00 20.6 26 Sudeste 30 Sudeste 0 -- -- 64
2019-10-25 15:00:00 20.4 26 Sur 29 Sudeste 0 -- -- 66
2019-10-25 14:00:00 20.1 21 Sudeste 24 Sudeste 0 -- -- 68
2019-10-25 13:00:00 19.9 18 Sudeste 22 Sudeste 0 -- -- 71
2019-10-25 12:00:00 21.3 3 Sur 12 Oeste 0 -- -- 52
2019-10-25 11:00:00 18.4 6 Oeste 15 Oeste 0 -- -- 63
2019-10-25 10:00:00 15.3 14 Oeste 22 Oeste 0 -- -- 69
2019-10-25 09:00:00 14.4 15 Oeste 23 Oeste 0 -- -- 70
2019-10-25 08:00:00 14.2 16 Oeste 20 Oeste 0 -- -- 71
2019-10-25 07:00:00 14.6 9 Oeste 14 Oeste 0 -- -- 70
2019-10-25 06:00:00 14.9 8 Oeste 16 Oeste 0 -- -- 70
2019-10-25 05:00:00 15 5 Oeste 15 Oeste 0 -- -- 70
2019-10-25 04:00:00 14.6 6 Sudoeste 13 Sudoeste 0 -- -- 74
2019-10-25 03:00:00 15.2 8 Oeste 17 Oeste 0 -- -- 72
2019-10-25 02:00:00 15.7 11 Oeste 14 Noroeste 0 -- -- 71
2019-10-25 01:00:00 17 10 Oeste 19 Oeste 0 -- -- 66
2019-10-25 00:00:00 15.9 13 Oeste 18 Oeste 0 -- -- 70
2019-10-24 23:00:00 17.5 13 Oeste 20 Sudoeste 0 -- -- 64
2019-10-24 22:00:00 18.3 12 Oeste 17 Oeste 0 -- -- 58
2019-10-24 21:00:00 18.4 10 Sudoeste 18 Sudoeste 0 -- -- 61
2019-10-24 20:00:00 18.9 10 Sur 20 Sur 0 -- -- 65
2019-10-24 19:00:00 19.6 23 Sur 35 Sur 0 -- -- 70
2019-10-24 18:00:00 19.3 29 Sur 39 Sur 0 -- -- 67
2019-10-24 17:00:00 18.6 35 Sur 45 Sur 0 -- -- 74
2019-10-24 16:00:00 18.7 32 Sur 39 Sur 0 -- -- 71
2019-10-24 15:00:00 21 17 Noroeste 39 Noroeste 0 -- -- 44
2019-10-24 14:00:00 20.4 26 Noroeste 41 Noroeste 0 -- -- 48
2019-10-24 13:00:00 19.6 28 Noroeste 46 Oeste 0 -- -- 50
2019-10-24 12:00:00 19.1 26 Oeste 48 Oeste 0 -- -- 53
2019-10-24 11:00:00 18.4 25 Noroeste 43 Noroeste 0 -- -- 54
2019-10-24 10:00:00 17.5 22 Noroeste 37 Oeste 0 -- -- 59
2019-10-24 09:00:00 14.8 10 Oeste 18 Oeste 0 -- -- 70
2019-10-24 08:00:00 13.7 13 Sudoeste 20 Oeste 0 -- -- 73
2019-10-24 07:00:00 13.6 17 Sudoeste 22 Sudoeste 0 -- -- 75
2019-10-24 06:00:00 13.6 15 Sudoeste 26 Sudoeste 0 -- -- 76
2019-10-24 05:00:00 14.5 10 Oeste 17 Sudoeste 0 -- -- 71
2019-10-24 04:00:00 14.5 12 Oeste 20 Sudoeste 0 -- -- 72
2019-10-24 03:00:00 16.3 14 Sudoeste 23 Sudoeste 0 -- -- 63
2019-10-24 02:00:00 16.1 13 Oeste 23 Sudoeste 0 -- -- 63
2019-10-24 01:00:00 15.4 10 Oeste 14 Oeste 0 -- -- 68
2019-10-24 00:00:00 15.5 9 Oeste 22 Sudoeste 0 -- -- 71
2019-10-23 23:00:00 16.7 17 Oeste 24 Oeste 0 -- -- 62
2019-10-23 22:00:00 16 12 Oeste 17 Oeste 0 -- -- 70
2019-10-23 21:00:00 16.1 4 Oeste 15 Oeste 0 -- -- 69
2019-10-23 20:00:00 17 8 Oeste 15 Sudoeste 0 -- -- 67
2019-10-23 19:00:00 16.6 10 Sur 13 Sur 0 -- -- 71
2019-10-23 18:00:00 15.3 3 Noroeste 17 Norte 0.6 -- -- 69
2019-10-23 17:00:00 16.2 11 Noroeste 31 Noroeste 1.2 -- -- 68
2019-10-23 16:00:00 19.8 11 Noroeste 29 Noroeste 0 -- -- 47
2019-10-23 15:00:00 19.6 12 Sudeste 17 Sudoeste 0 -- -- 58
2019-10-23 14:00:00 19.5 8 Sur 24 Sur 0 -- -- 60
2019-10-23 13:00:00 18 9 Sudeste 17 Sudeste 0 -- -- 64
2019-10-23 12:00:00 17.6 7 Sudeste 17 Sudoeste 0 -- -- 62
2019-10-23 11:00:00 16.2 9 Oeste 23 Sudoeste 0 -- -- 65
2019-10-23 10:00:00 14.5 15 Oeste 25 Oeste 0 -- -- 68
2019-10-23 09:00:00 14.2 15 Oeste 28 Sudoeste 0 -- -- 67
2019-10-23 08:00:00 13.5 13 Oeste 22 Sudoeste 0 -- -- 73
2019-10-23 07:00:00 13.3 18 Oeste 24 Oeste 0 -- -- 73
2019-10-23 06:00:00 12.8 13 Oeste 21 Oeste 0 -- -- 78
2019-10-23 05:00:00 13.6 16 Oeste 27 Sudoeste 0 -- -- 73
2019-10-23 04:00:00 14.4 14 Sudoeste 22 Sudoeste 0 -- -- 72
2019-10-23 03:00:00 12.5 12 Noroeste 20 Sudoeste 0 -- -- 86
2019-10-23 02:00:00 13.1 14 Oeste 26 Oeste 0 -- -- 86
2019-10-23 01:00:00 13.7 13 Oeste 22 Oeste 0 -- -- 83
2019-10-23 00:00:00 13.6 12 Oeste 21 Oeste 0 -- -- 87
2019-10-22 23:00:00 13.6 10 Sudoeste 15 Sudoeste 0 -- -- 90
2019-10-22 22:00:00 14.2 12 Sur 18 Sur 0 -- -- 93
2019-10-22 21:00:00 14.2 7 Sudeste 10 Sudeste 1.6 -- -- 93
2019-10-22 20:00:00 13.7 3 Sudoeste 16 Sur 2.4 -- -- 93
2019-10-22 19:00:00 14.3 16 Sur 22 Sur 0.2 -- -- 91
2019-10-22 18:00:00 14.6 10 Sudeste 17 Sudeste 0.2 -- -- 86
2019-10-22 17:00:00 14.2 6 Sudeste 9 Sudeste 0 -- -- 87
2019-10-22 16:00:00 14 5 Sur 9 Sur 0.2 -- -- 90
2019-10-22 15:00:00 13.9 3 Sur 5 Sur 0.2 -- -- 94
2019-10-22 14:00:00 13.4 0 Calma 5 Este 0.2 -- -- 94
2019-10-22 13:00:00 13.2 0 Calma 8 Noroeste 0.2 -- -- 95
2019-10-22 12:00:00 12.9 0 Calma 7 Noroeste 2.6 -- -- 96
2019-10-22 11:00:00 13.1 6 Oeste 12 Sudoeste 3.8 -- -- 96
2019-10-22 10:00:00 13.2 4 Sudoeste 13 Sudoeste 5 -- -- 96
2019-10-22 09:00:00 13.4 9 Oeste 15 Oeste 1.4 -- -- 95
2019-10-22 08:00:00 13.3 8 Oeste 15 Oeste 1.8 -- -- 95
2019-10-22 07:00:00 13.3 14 Oeste 22 Oeste 3.2 -- -- 93
2019-10-22 06:00:00 13.9 10 Noroeste 15 Oeste 3 -- -- 91
2019-10-22 05:00:00 14.8 9 Noroeste 16 Noroeste 0.4 -- -- 89
2019-10-22 04:00:00 15.1 4 Noroeste 19 Noroeste 1.2 -- -- 86
2019-10-22 03:00:00 15.7 13 Noroeste 20 Noroeste 0.4 -- -- 80
2019-10-22 02:00:00 16.5 10 Noroeste 12 Noroeste 0.2 -- -- 82
2019-10-22 01:00:00 18.3 7 Nordeste 16 Este 0 -- -- 74
2019-10-22 00:00:00 18.1 10 Sudeste 15 Sur 0 -- -- 71
2019-10-21 23:00:00 18.1 5 Sur 9 Sur 0 -- -- 78
2019-10-21 22:00:00 17.8 4 Sudoeste 17 Sudoeste 0.2 -- -- 75
2019-10-21 21:00:00 18 8 Oeste 9 Oeste 0 -- -- 73
2019-10-21 20:00:00 18.4 4 Noroeste 8 Sur 0 -- -- 72
2019-10-21 19:00:00 18.6 6 Sur 10 Sudeste 0 -- -- 73
2019-10-21 18:00:00 18.7 9 Sudeste 15 Sudeste 0 -- -- 72
2019-10-21 17:00:00 18.8 12 Sudeste 18 Sudeste 0 -- -- 70
2019-10-21 16:00:00 18.9 14 Sudeste 18 Sudeste 0 -- -- 68
2019-10-21 15:00:00 19.3 10 Sudeste 15 Sudeste 0 -- -- 65
2019-10-21 14:00:00 20 9 Este 12 Este 0 -- -- 57
2019-10-21 13:00:00 19 5 Noroeste 13 Noroeste 0 -- -- 50
2019-10-21 12:00:00 17.2 9 Noroeste 15 Noroeste 0 -- -- 55
2019-10-21 11:00:00 15.2 12 Noroeste 16 Noroeste 0 -- -- 62
2019-10-21 10:00:00 13.7 13 Oeste 21 Noroeste 0 -- -- 67
2019-10-21 09:00:00 13.1 16 Oeste 21 Oeste 0 -- -- 66
2019-10-21 08:00:00 13.3 13 Oeste 21 Oeste 0 -- -- 66
2019-10-21 07:00:00 13.4 11 Oeste 19 Noroeste 0 -- -- 67
2019-10-21 06:00:00 14.3 13 Oeste 18 Oeste 0 -- -- 63
2019-10-21 05:00:00 14.5 12 Oeste 17 Oeste 0 -- -- 63
2019-10-21 04:00:00 14.9 9 Oeste 14 Oeste 0 -- -- 64
2019-10-21 03:00:00 15.7 9 Oeste 13 Noroeste 0 -- -- 61
2019-10-21 02:00:00 16 7 Noroeste 14 Noroeste 0 -- -- 63
2019-10-21 01:00:00 16.8 5 Oeste 12 Oeste 0 -- -- 62
2019-10-21 00:00:00 16.9 7 Oeste 11 Oeste 0 -- -- 62
2019-10-20 23:00:00 18 3 Oeste 9 Oeste 0 -- -- 60
2019-10-20 22:00:00 18.8 5 Oeste 15 Oeste 0 -- -- 57
2019-10-20 21:00:00 19.3 10 Oeste 23 Sudoeste 0 -- -- 60
2019-10-20 20:00:00 19.9 16 Oeste 28 Sudoeste 0 -- -- 60
2019-10-20 19:00:00 20.6 15 Sudoeste 26 Sudoeste 0 -- -- 56
2019-10-20 18:00:00 21.1 15 Sudoeste 28 Sudeste 0 -- -- 53
2019-10-20 17:00:00 20.5 13 Sur 21 Sudeste 0 -- -- 64
2019-10-20 16:00:00 20.6 10 Oeste 24 Sudoeste 0 -- -- 55
2019-10-20 15:00:00 20.2 19 Sudoeste 38 Sudoeste 0 -- -- 58
2019-10-20 14:00:00 20.4 22 Oeste 35 Oeste 0 -- -- 55
2019-10-20 13:00:00 19.7 28 Oeste 42 Sudoeste 0 -- -- 60
2019-10-20 12:00:00 19.6 15 Sudoeste 33 Oeste 0 -- -- 70
2019-10-20 11:00:00 20 16 Sudoeste 23 Sudoeste 0 -- -- 61
2019-10-20 10:00:00 19.9 15 Oeste 28 Oeste 0 -- -- 55
2019-10-20 09:00:00 19.8 16 Noroeste 26 Noroeste 0 -- -- 57
2019-10-20 08:00:00 20.3 15 Noroeste 26 Oeste 0 -- -- 57
2019-10-20 07:00:00 21.4 18 Noroeste 48 Sudoeste 0 -- -- 52
2019-10-20 06:00:00 23.3 42 Sur 56 Sur 0 -- -- 61
2019-10-20 05:00:00 22.9 20 Sur 44 Sur 0 -- -- 62
2019-10-20 04:00:00 22.8 8 Sudoeste 30 Sur 0 -- -- 57
2019-10-20 03:00:00 23.5 14 Sudoeste 33 Sudoeste 0 -- -- 64
2019-10-20 02:00:00 24 21 Sur 29 Sur 0 -- -- 56
2019-10-20 01:00:00 23.9 18 Sudoeste 25 Sudoeste 0 -- -- 53
2019-10-20 00:00:00 23 14 Sudoeste 27 Sudoeste 0 -- -- 56
2019-10-19 23:00:00 22.6 13 Sudoeste 28 Sudoeste 0 -- -- 54
2019-10-19 22:00:00 23 18 Oeste 46 Sudoeste 0 -- -- 54
2019-10-19 21:00:00 24.2 30 Oeste 47 Sudoeste 0 -- -- 48
2019-10-19 20:00:00 25.2 26 Sudoeste 44 Sudoeste 0 -- -- 49
2019-10-19 19:00:00 26.5 32 Sudoeste 59 Sudoeste 0 -- -- 43
2019-10-19 18:00:00 27.3 48 Sudoeste 64 Sudoeste 0 -- -- 42
2019-10-19 17:00:00 26 30 Sur 55 Sur 0 -- -- 50
2019-10-19 16:00:00 24.5 41 Sur 54 Sur 0 -- -- 65
2019-10-19 15:00:00 23.2 26 Sudeste 37 Sudeste 0 -- -- 77
2019-10-19 14:00:00 21.7 24 Sudeste 28 Sudeste 0 -- -- 87
2019-10-19 13:00:00 21.4 19 Sudeste 22 Sudeste 0 -- -- 78
2019-10-19 12:00:00 21.1 17 Sudeste 24 Sur 0 -- -- 67
2019-10-19 11:00:00 22.4 6 Sudoeste 13 Oeste 0 -- -- 58
2019-10-19 10:00:00 18.3 5 Noroeste 12 Oeste 0 -- -- 66
2019-10-19 09:00:00 17.5 3 Noroeste 10 Oeste 0 -- -- 67
2019-10-19 08:00:00 16.4 7 Oeste 15 Oeste 0 -- -- 73
2019-10-19 07:00:00 15.8 6 Noroeste 15 Oeste 0 -- -- 74
2019-10-19 06:00:00 17.6 4 Sudoeste 13 Oeste 0 -- -- 69
2019-10-19 05:00:00 17.3 10 Oeste 14 Oeste 0 -- -- 70
2019-10-19 04:00:00 17 6 Noroeste 13 Oeste 0 -- -- 70
2019-10-19 03:00:00 17.6 7 Oeste 12 Oeste 0 -- -- 68
2019-10-19 02:00:00 17.7 4 Oeste 18 Sudoeste 0 -- -- 75
2019-10-19 01:00:00 19 8 Oeste 11 Sudoeste 0 -- -- 73
2019-10-19 00:00:00 19.7 5 Oeste 11 Sudoeste 0 -- -- 72
2019-10-18 23:00:00 20.1 6 Oeste 12 Oeste 0 -- -- 74
2019-10-18 22:00:00 19.9 8 Noroeste 10 Oeste 0 -- -- 76
2019-10-18 21:00:00 21.5 9 Norte 25 Norte 0 -- -- 78
2019-10-18 20:00:00 22.2 16 Norte 22 Norte 0 -- -- 79
2019-10-18 19:00:00 23.6 5 Noroeste 28 Sur 0 -- -- 67
2019-10-18 18:00:00 23.3 24 Sur 30 Sudeste 0 -- -- 69
2019-10-18 17:00:00 22.5 21 Sudeste 29 Sur 0 -- -- 82
2019-10-18 16:00:00 21.9 28 Sudeste 32 Sudeste 0 -- -- 84
2019-10-18 15:00:00 21.9 30 Sudeste 32 Sudeste 0 -- -- 80
2019-10-18 14:00:00 21.6 22 Sudeste 26 Sudeste 0 -- -- 77
2019-10-18 13:00:00 21.7 19 Sudeste 23 Sudeste 0 -- -- 64
2019-10-18 12:00:00 22.2 7 Sudeste 10 Noroeste 0 -- -- 54
2019-10-18 11:00:00 20.7 8 Oeste 13 Oeste 0 -- -- 51
2019-10-18 10:00:00 18.1 11 Oeste 15 Oeste 0 -- -- 52
2019-10-18 09:00:00 17.6 10 Oeste 15 Oeste 0 -- -- 52
2019-10-18 08:00:00 18.3 14 Oeste 22 Oeste 0 -- -- 50
2019-10-18 07:00:00 17.8 7 Oeste 13 Oeste 0 -- -- 52
2019-10-18 06:00:00 17.9 5 Sudoeste 13 Oeste 0 -- -- 55
2019-10-18 05:00:00 17.8 6 Oeste 11 Oeste 0 -- -- 53
2019-10-18 04:00:00 17.7 3 Sudoeste 14 Oeste 0 -- -- 58
2019-10-18 03:00:00 18.6 10 Oeste 18 Oeste 0 -- -- 57
2019-10-18 02:00:00 18.2 9 Oeste 14 Oeste 0 -- -- 64
2019-10-18 01:00:00 18.7 10 Oeste 15 Oeste 0 -- -- 60
2019-10-18 00:00:00 19 7 Sudoeste 19 Oeste 0 -- -- 62
2019-10-17 23:00:00 19 16 Oeste 22 Oeste 0 -- -- 67
2019-10-17 22:00:00 20.9 7 Oeste 11 Oeste 0 -- -- 62
2019-10-17 21:00:00 22 5 Norte 20 Norte 0 -- -- 68
2019-10-17 20:00:00 22.7 11 Norte 17 Norte 0 -- -- 73
2019-10-17 19:00:00 23.7 13 Sur 24 Sur 0 -- -- 65
2019-10-17 18:00:00 24 17 Sudeste 23 Sudeste 0 -- -- 61
2019-10-17 17:00:00 23.9 17 Sudeste 29 Sudeste 0 -- -- 61
2019-10-17 16:00:00 22.9 20 Sudeste 32 Sudeste 0 -- -- 71
2019-10-17 15:00:00 22.9 20 Sudeste 27 Sudeste 0 -- -- 58
2019-10-17 14:00:00 22.9 16 Sudeste 19 Sudeste 0 -- -- 66
2019-10-17 13:00:00 21.7 12 Sudeste 15 Sudeste 0 -- -- 57
2019-10-17 12:00:00 20.5 9 Sudeste 12 Sudeste 0 -- -- 60
2019-10-17 11:00:00 19.7 4 Sudoeste 13 Oeste 0 -- -- 53
2019-10-17 10:00:00 16.7 8 Oeste 14 Oeste 0 -- -- 59
2019-10-17 09:00:00 15.4 6 Oeste 13 Oeste 0 -- -- 65
2019-10-17 08:00:00 14.6 5 Oeste 14 Noroeste 0 -- -- 63
2019-10-17 07:00:00 15.1 10 Oeste 17 Oeste 0 -- -- 63
2019-10-17 06:00:00 15.5 14 Oeste 19 Oeste 0 -- -- 66
2019-10-17 05:00:00 14.6 13 Oeste 18 Oeste 0 -- -- 74
2019-10-17 04:00:00 15.2 12 Oeste 17 Oeste 0 -- -- 74
2019-10-17 03:00:00 15.9 10 Oeste 13 Oeste 0 -- -- 73
2019-10-17 02:00:00 16.3 6 Oeste 11 Oeste 0 -- -- 73
2019-10-17 01:00:00 17 8 Sudoeste 12 Oeste 0 -- -- 72
2019-10-17 00:00:00 17.2 9 Oeste 18 Oeste 0 -- -- 76
2019-10-16 23:00:00 17.7 11 Oeste 19 Oeste 0 -- -- 71
2019-10-16 22:00:00 18.9 14 Oeste 20 Oeste 0 -- -- 75
2019-10-16 21:00:00 19 13 Oeste 15 Oeste 0 -- -- 74
2019-10-16 20:00:00 21 9 Sudoeste 31 Sudeste 0 -- -- 65
2019-10-16 19:00:00 21.4 27 Sudeste 32 Sudeste 0 -- -- 69
2019-10-16 18:00:00 20.8 27 Sudeste 33 Sudeste 0 -- -- 73
2019-10-16 17:00:00 20.7 23 Sudeste 27 Sudeste 0 -- -- 68
2019-10-16 16:00:00 20.8 21 Sudeste 24 Sudeste 0 -- -- 65
2019-10-16 15:00:00 20.6 18 Sudeste 22 Sudeste 0 -- -- 66
2019-10-16 14:00:00 20.6 17 Sudeste 20 Sudeste 0 -- -- 65
2019-10-16 13:00:00 20.6 11 Sudeste 15 Sudeste 0 -- -- 68
2019-10-16 12:00:00 21.2 7 Sudeste 14 Oeste 0 -- -- 44
2019-10-16 11:00:00 18.6 12 Oeste 15 Oeste 0 -- -- 49
2019-10-16 10:00:00 15.8 13 Oeste 22 Oeste 0 -- -- 57
2019-10-16 09:00:00 14.4 17 Oeste 22 Oeste 0 -- -- 60
2019-10-16 08:00:00 13.6 13 Oeste 19 Oeste 0 -- -- 64
2019-10-16 07:00:00 14 16 Oeste 20 Oeste 0 -- -- 66
2019-10-16 06:00:00 14 10 Oeste 17 Oeste 0 -- -- 68
2019-10-16 05:00:00 14.9 14 Oeste 19 Noroeste 0 -- -- 70
2019-10-16 04:00:00 15.1 12 Oeste 15 Oeste 0 -- -- 68
2019-10-16 03:00:00 16 9 Oeste 16 Oeste 0 -- -- 67
2019-10-16 02:00:00 16 12 Oeste 21 Oeste 0 -- -- 67
2019-10-16 01:00:00 16.8 8 Oeste 17 Oeste 0 -- -- 66
2019-10-16 00:00:00 16.9 13 Oeste 19 Oeste 0 -- -- 66
2019-10-15 23:00:00 18.3 10 Oeste 15 Oeste 0 -- -- 63
2019-10-15 22:00:00 18.4 8 Oeste 13 Sudoeste 0 -- -- 66
2019-10-15 21:00:00 20 8 Sudoeste 21 Sudeste 0 -- -- 65
2019-10-15 20:00:00 20.5 16 Sudeste 27 Sudeste 0 -- -- 64
2019-10-15 19:00:00 20.9 21 Sudeste 29 Sudeste 0 -- -- 63
2019-10-15 18:00:00 20.9 24 Sudeste 30 Sudeste 0 -- -- 61
2019-10-15 17:00:00 20.9 24 Sudeste 30 Sudeste 0 -- -- 64
2019-10-15 16:00:00 21.1 22 Sudeste 31 Sudeste 0 -- -- 58
2019-10-15 15:00:00 21.2 26 Sudeste 32 Este 0 -- -- 54
2019-10-15 14:00:00 21.4 23 Sudeste 33 Sudeste 0 -- -- 48
2019-10-15 13:00:00 22.4 17 Nordeste 24 Nordeste 0 -- -- 47
2019-10-15 12:00:00 22 12 Noroeste 28 Noroeste 0 -- -- 39
2019-10-15 11:00:00 20.2 22 Noroeste 34 Noroeste 0 -- -- 44
2019-10-15 10:00:00 18.6 27 Noroeste 44 Noroeste 0 -- -- 52
2019-10-15 09:00:00 17.8 20 Noroeste 35 Noroeste 0 -- -- 55
2019-10-15 08:00:00 18.2 12 Noroeste 37 Noroeste 0 -- -- 53
2019-10-15 07:00:00 18.7 23 Oeste 36 Oeste 0 -- -- 53
2019-10-15 06:00:00 19 22 Noroeste 38 Oeste 0 -- -- 53
2019-10-15 05:00:00 19.6 23 Oeste 37 Noroeste 0 -- -- 53
2019-10-15 04:00:00 19.7 20 Noroeste 32 Noroeste 0 -- -- 59
2019-10-15 03:00:00 20 8 Noroeste 20 Oeste 0 -- -- 50
2019-10-15 02:00:00 21 11 Noroeste 15 Oeste 0 -- -- 47
2019-10-15 01:00:00 22.6 9 Oeste 15 Oeste 0 -- -- 39
2019-10-15 00:00:00 22.5 9 Oeste 22 Oeste 0 -- -- 47
2019-10-14 23:00:00 24.2 15 Oeste 30 Noroeste 0 -- -- 43
2019-10-14 22:00:00 23.5 12 Oeste 26 Sudoeste 0 -- -- 57
2019-10-14 21:00:00 24 19 Sudoeste 25 Sudoeste 0 -- -- 58
2019-10-14 20:00:00 25.6 18 Sudoeste 28 Oeste 0 -- -- 51
2019-10-14 19:00:00 27.1 19 Oeste 38 Sudoeste 0 -- -- 47
2019-10-14 18:00:00 28.5 15 Sudoeste 27 Sudoeste 0 -- -- 48
2019-10-14 17:00:00 27.8 20 Sudoeste 30 Sudoeste 0 -- -- 50
2019-10-14 16:00:00 25.6 12 Norte 22 Norte 0 -- -- 78
2019-10-14 15:00:00 25.6 10 Nordeste 15 Norte 0 -- -- 78
2019-10-14 14:00:00 24.8 4 Noroeste 17 Nordeste 0 -- -- 75
2019-10-14 13:00:00 23.7 8 Este 10 Este 0 -- -- 76
2019-10-14 12:00:00 23.3 2 Oeste 17 Oeste 0 -- -- 73
2019-10-14 11:00:00 21.4 16 Oeste 22 Oeste 0 -- -- 80
2019-10-14 10:00:00 20.4 5 Norte 22 Oeste 0 -- -- 87
2019-10-14 09:00:00 18.9 17 Oeste 21 Oeste 0 -- -- 90
2019-10-14 08:00:00 18.7 11 Noroeste 15 Noroeste 0 -- -- 93
2019-10-14 07:00:00 18.7 7 Noroeste 14 Oeste 0 -- -- 90
2019-10-14 06:00:00 19.2 14 Oeste 19 Oeste 0 -- -- 91
2019-10-14 05:00:00 19.3 12 Oeste 18 Noroeste 0 -- -- 91
2019-10-14 04:00:00 19.2 11 Noroeste 21 Oeste 0 -- -- 91
2019-10-14 03:00:00 19.6 13 Oeste 18 Oeste 0 -- -- 90
2019-10-14 02:00:00 19.8 12 Oeste 18 Oeste 0 -- -- 91
2019-10-14 01:00:00 19.9 15 Oeste 18 Oeste 0 -- -- 91
2019-10-14 00:00:00 21 8 Oeste 13 Oeste 0 -- -- 93